sensor_id;sensor_type;location;lat;lon;timestamp;pressure;altitude;pressure_sealevel;temperature;humidity
10718;BME280;13513;42.700;23.124;2023-04-21T00:00:03;92556.80;;;9.78;88.62
10718;BME280;13513;42.700;23.124;2023-04-21T00:02:34;92549.86;;;9.69;88.79
10718;BME280;13513;42.700;23.124;2023-04-21T00:05:08;92548.55;;;9.72;89.47
10718;BME280;13513;42.700;23.124;2023-04-21T00:07:40;92547.67;;;9.61;90.24
10718;BME280;13513;42.700;23.124;2023-04-21T00:10:12;92545.31;;;9.65;89.37
10718;BME280;13513;42.700;23.124;2023-04-21T00:12:43;92547.91;;;9.60;90.44
10718;BME280;13513;42.700;23.124;2023-04-21T00:15:14;92548.82;;;9.73;88.48
10718;BME280;13513;42.700;23.124;2023-04-21T00:17:45;92540.64;;;9.72;87.94
10718;BME280;13513;42.700;23.124;2023-04-21T00:20:16;92541.16;;;9.71;88.12
10718;BME280;13513;42.700;23.124;2023-04-21T00:22:47;92545.08;;;9.66;90.08
10718;BME280;13513;42.700;23.124;2023-04-21T00:25:18;92543.73;;;9.64;90.07
10718;BME280;13513;42.700;23.124;2023-04-21T00:27:48;92541.09;;;9.64;90.75
10718;BME280;13513;42.700;23.124;2023-04-21T00:30:19;92537.03;;;9.54;90.91
10718;BME280;13513;42.700;23.124;2023-04-21T00:32:50;92533.91;;;9.57;90.34
10718;BME280;13513;42.700;23.124;2023-04-21T00:35:21;92531.05;;;9.63;90.66
10718;BME280;13513;42.700;23.124;2023-04-21T00:37:51;92534.48;;;9.61;90.44
10718;BME280;13513;42.700;23.124;2023-04-21T00:40:21;92539.49;;;9.60;91.04
10718;BME280;13513;42.700;23.124;2023-04-21T00:42:52;92544.63;;;9.48;92.13
10718;BME280;13513;42.700;23.124;2023-04-21T00:45:22;92541.68;;;9.44;92.28
10718;BME280;13513;42.700;23.124;2023-04-21T00:47:53;92536.63;;;9.40;92.07
10718;BME280;13513;42.700;23.124;2023-04-21T00:50:24;92535.09;;;9.44;92.05
10718;BME280;13513;42.700;23.124;2023-04-21T00:52:55;92538.15;;;9.34;93.49
10718;BME280;13513;42.700;23.124;2023-04-21T00:55:28;92536.08;;;9.12;93.98
10718;BME280;13513;42.700;23.124;2023-04-21T00:57:58;92534.91;;;9.03;95.47
10718;BME280;13513;42.700;23.124;2023-04-21T01:00:29;92530.76;;;9.09;94.84
10718;BME280;13513;42.700;23.124;2023-04-21T01:03:00;92535.49;;;9.07;94.59
10718;BME280;13513;42.700;23.124;2023-04-21T01:05:31;92531.30;;;9.09;93.90
10718;BME280;13513;42.700;23.124;2023-04-21T01:08:02;92530.66;;;8.99;94.63
10718;BME280;13513;42.700;23.124;2023-04-21T01:10:34;92530.52;;;9.11;93.98
10718;BME280;13513;42.700;23.124;2023-04-21T01:13:05;92530.69;;;9.26;93.38
10718;BME280;13513;42.700;23.124;2023-04-21T01:15:36;92533.32;;;9.26;93.04
10718;BME280;13513;42.700;23.124;2023-04-21T01:18:07;92528.07;;;9.28;94.01
10718;BME280;13513;42.700;23.124;2023-04-21T01:20:37;92527.12;;;9.13;94.53
10718;BME280;13513;42.700;23.124;2023-04-21T01:23:08;92528.09;;;9.07;95.37
10718;BME280;13513;42.700;23.124;2023-04-21T01:25:38;92523.61;;;9.05;95.24
10718;BME280;13513;42.700;23.124;2023-04-21T01:28:09;92528.70;;;9.14;94.90
10718;BME280;13513;42.700;23.124;2023-04-21T01:30:40;92523.92;;;9.11;95.25
10718;BME280;13513;42.700;23.124;2023-04-21T01:33:11;92531.00;;;9.08;95.26
10718;BME280;13513;42.700;23.124;2023-04-21T01:35:42;92518.63;;;9.08;95.67
10718;BME280;13513;42.700;23.124;2023-04-21T01:38:12;92521.39;;;9.18;95.38
10718;BME280;13513;42.700;23.124;2023-04-21T01:40:44;92520.30;;;9.14;95.60
10718;BME280;13513;42.700;23.124;2023-04-21T01:43:16;92520.36;;;9.22;95.23
10718;BME280;13513;42.700;23.124;2023-04-21T01:45:48;92515.34;;;9.20;95.47
10718;BME280;13513;42.700;23.124;2023-04-21T01:48:19;92516.67;;;9.23;95.45
10718;BME280;13513;42.700;23.124;2023-04-21T01:50:50;92517.69;;;9.17;96.14
10718;BME280;13513;42.700;23.124;2023-04-21T01:53:20;92513.33;;;9.30;95.13
10718;BME280;13513;42.700;23.124;2023-04-21T01:55:51;92514.04;;;9.23;95.48
10718;BME280;13513;42.700;23.124;2023-04-21T01:58:21;92516.61;;;9.15;95.86
10718;BME280;13513;42.700;23.124;2023-04-21T02:00:52;92511.92;;;9.20;95.89
10718;BME280;13513;42.700;23.124;2023-04-21T02:03:23;92512.66;;;9.15;96.19
10718;BME280;13513;42.700;23.124;2023-04-21T02:05:54;92512.41;;;9.17;96.18
10718;BME280;13513;42.700;23.124;2023-04-21T02:08:25;92510.31;;;9.19;95.92
10718;BME280;13513;42.700;23.124;2023-04-21T02:10:55;92512.09;;;9.13;96.40
10718;BME280;13513;42.700;23.124;2023-04-21T02:13:26;92513.14;;;9.12;96.54
10718;BME280;13513;42.700;23.124;2023-04-21T02:15:57;92505.50;;;9.13;96.63
10718;BME280;13513;42.700;23.124;2023-04-21T02:18:28;92511.60;;;9.16;96.46
10718;BME280;13513;42.700;23.124;2023-04-21T02:20:58;92514.50;;;9.17;96.42
10718;BME280;13513;42.700;23.124;2023-04-21T02:23:30;92511.60;;;9.16;96.46
10718;BME280;13513;42.700;23.124;2023-04-21T02:26:00;92511.87;;;9.17;95.97
10718;BME280;13513;42.700;23.124;2023-04-21T02:28:31;92508.13;;;9.13;96.23
10718;BME280;13513;42.700;23.124;2023-04-21T02:31:02;92505.21;;;9.10;96.32
10718;BME280;13513;42.700;23.124;2023-04-21T02:33:31;92502.58;;;9.10;96.20
10718;BME280;13513;42.700;23.124;2023-04-21T02:36:02;92510.22;;;9.09;96.43
10718;BME280;13513;42.700;23.124;2023-04-21T02:38:32;92508.33;;;9.07;96.62
10718;BME280;13513;42.700;23.124;2023-04-21T02:41:03;92511.56;;;9.11;96.24
10718;BME280;13513;42.700;23.124;2023-04-21T02:43:34;92517.24;;;9.01;97.23
10718;BME280;13513;42.700;23.124;2023-04-21T02:46:07;92513.31;;;9.03;98.08
10718;BME280;13513;42.700;23.124;2023-04-21T02:48:38;92517.91;;;9.13;96.97
10718;BME280;13513;42.700;23.124;2023-04-21T02:51:13;92521.05;;;9.12;96.20
10718;BME280;13513;42.700;23.124;2023-04-21T02:53:44;92518.17;;;9.14;96.26
10718;BME280;13513;42.700;23.124;2023-04-21T02:56:15;92514.44;;;9.10;96.33
10718;BME280;13513;42.700;23.124;2023-04-21T02:58:46;92513.38;;;9.11;96.37
10718;BME280;13513;42.700;23.124;2023-04-21T03:01:17;92520.78;;;9.11;96.61
10718;BME280;13513;42.700;23.124;2023-04-21T03:03:48;92517.95;;;9.18;96.55
10718;BME280;13513;42.700;23.124;2023-04-21T03:06:19;92523.78;;;9.20;96.07
10718;BME280;13513;42.700;23.124;2023-04-21T03:08:50;92520.41;;;9.27;94.98
10718;BME280;13513;42.700;23.124;2023-04-21T03:11:21;92523.85;;;9.27;95.65
10718;BME280;13513;42.700;23.124;2023-04-21T03:13:52;92520.36;;;9.22;94.79
10718;BME280;13513;42.700;23.124;2023-04-21T03:16:23;92519.27;;;9.18;95.31
10718;BME280;13513;42.700;23.124;2023-04-21T03:18:53;92520.78;;;9.11;95.64
10718;BME280;13513;42.700;23.124;2023-04-21T03:21:24;92520.76;;;9.09;95.52
10718;BME280;13513;42.700;23.124;2023-04-21T03:23:55;92518.05;;;9.04;95.39
10718;BME280;13513;42.700;23.124;2023-04-21T03:26:26;92529.66;;;9.05;95.29
10718;BME280;13513;42.700;23.124;2023-04-21T03:28:57;92519.70;;;9.10;94.93
10718;BME280;13513;42.700;23.124;2023-04-21T03:31:28;92519.90;;;9.03;95.44
10718;BME280;13513;42.700;23.124;2023-04-21T03:33:59;92523.05;;;9.03;95.38
10718;BME280;13513;42.700;23.124;2023-04-21T03:36:30;92537.22;;;8.97;95.68
10718;BME280;13513;42.700;23.124;2023-04-21T03:39:01;92532.75;;;9.00;96.23
10718;BME280;13513;42.700;23.124;2023-04-21T03:41:33;92529.88;;;9.01;95.83
10718;BME280;13513;42.700;23.124;2023-04-21T03:44:05;92528.05;;;9.02;95.64
10718;BME280;13513;42.700;23.124;2023-04-21T03:46:36;92533.61;;;9.05;95.91
10718;BME280;13513;42.700;23.124;2023-04-21T03:49:07;92532.31;;;9.08;95.61
10718;BME280;13513;42.700;23.124;2023-04-21T03:51:37;92532.64;;;9.11;95.72
10718;BME280;13513;42.700;23.124;2023-04-21T03:54:08;92531.61;;;9.15;95.38
10718;BME280;13513;42.700;23.124;2023-04-21T03:56:39;92534.42;;;9.06;95.79
10718;BME280;13513;42.700;23.124;2023-04-21T03:59:10;92537.32;;;9.07;96.98
10718;BME280;13513;42.700;23.124;2023-04-21T04:01:41;92545.86;;;9.16;95.43
10718;BME280;13513;42.700;23.124;2023-04-21T04:04:12;92544.08;;;9.22;96.04
10718;BME280;13513;42.700;23.124;2023-04-21T04:06:43;92543.58;;;9.22;96.90
10718;BME280;13513;42.700;23.124;2023-04-21T04:09:14;92547.59;;;9.30;97.48
10718;BME280;13513;42.700;23.124;2023-04-21T04:11:45;92553.30;;;9.46;95.65
10718;BME280;13513;42.700;23.124;2023-04-21T04:14:16;92551.76;;;9.50;95.80
10718;BME280;13513;42.700;23.124;2023-04-21T04:16:46;92552.83;;;9.51;94.32
10718;BME280;13513;42.700;23.124;2023-04-21T04:19:16;92560.86;;;9.61;94.15
10718;BME280;13513;42.700;23.124;2023-04-21T04:21:47;92552.92;;;9.59;93.17
10718;BME280;13513;42.700;23.124;2023-04-21T04:24:18;92553.83;;;9.72;92.69
10718;BME280;13513;42.700;23.124;2023-04-21T04:26:49;92563.20;;;9.87;91.97
10718;BME280;13513;42.700;23.124;2023-04-21T04:29:20;92563.56;;;9.95;92.34
10718;BME280;13513;42.700;23.124;2023-04-21T04:31:51;92560.44;;;10.01;90.38
10718;BME280;13513;42.700;23.124;2023-04-21T04:34:22;92565.55;;;10.10;91.18
10718;BME280;13513;42.700;23.124;2023-04-21T04:36:53;92572.48;;;10.16;91.10
10718;BME280;13513;42.700;23.124;2023-04-21T04:39:23;92563.56;;;10.27;90.87
10718;BME280;13513;42.700;23.124;2023-04-21T04:41:54;92568.93;;;10.37;90.91
10718;BME280;13513;42.700;23.124;2023-04-21T04:44:24;92572.45;;;10.50;86.94
10718;BME280;13513;42.700;23.124;2023-04-21T04:46:55;92570.05;;;10.46;86.54
10718;BME280;13513;42.700;23.124;2023-04-21T04:49:26;92576.66;;;10.48;88.32
10718;BME280;13513;42.700;23.124;2023-04-21T04:51:57;92580.46;;;10.62;86.35
10718;BME280;13513;42.700;23.124;2023-04-21T04:54:28;92580.25;;;10.71;85.94
10718;BME280;13513;42.700;23.124;2023-04-21T04:57:00;92580.56;;;10.77;84.49
10718;BME280;13513;42.700;23.124;2023-04-21T04:59:30;92582.14;;;10.78;83.57
10718;BME280;13513;42.700;23.124;2023-04-21T05:02:00;92586.25;;;11.01;82.33
10718;BME280;13513;42.700;23.124;2023-04-21T05:04:29;92576.75;;;11.02;83.21
10718;BME280;13513;42.700;23.124;2023-04-21T05:07:00;92579.19;;;11.21;80.49
10718;BME280;13513;42.700;23.124;2023-04-21T05:09:30;92583.20;;;11.29;83.19
10718;BME280;13513;42.700;23.124;2023-04-21T05:12:01;92584.34;;;11.50;81.51
10718;BME280;13513;42.700;23.124;2023-04-21T05:14:32;92582.52;;;11.58;83.50
10718;BME280;13513;42.700;23.124;2023-04-21T05:17:03;92583.14;;;11.78;81.59
10718;BME280;13513;42.700;23.124;2023-04-21T05:19:36;92588.95;;;11.72;82.77
10718;BME280;13513;42.700;23.124;2023-04-21T05:22:08;92581.52;;;11.77;85.20
10718;BME280;13513;42.700;23.124;2023-04-21T05:24:42;92587.14;;;12.05;83.55
10718;BME280;13513;42.700;23.124;2023-04-21T05:27:12;92582.39;;;12.33;80.87
10718;BME280;13513;42.700;23.124;2023-04-21T05:29:43;92580.00;;;12.49;79.79
10718;BME280;13513;42.700;23.124;2023-04-21T05:32:18;92585.85;;;12.51;78.04
10718;BME280;13513;42.700;23.124;2023-04-21T05:34:49;92587.45;;;12.57;77.17
10718;BME280;13513;42.700;23.124;2023-04-21T05:37:20;92579.75;;;12.33;78.47
10718;BME280;13513;42.700;23.124;2023-04-21T05:39:51;92577.36;;;12.28;77.55
10718;BME280;13513;42.700;23.124;2023-04-21T05:42:22;92574.46;;;12.43;78.28
10718;BME280;13513;42.700;23.124;2023-04-21T05:44:53;92573.39;;;12.69;81.77
10718;BME280;13513;42.700;23.124;2023-04-21T05:47:24;92581.80;;;12.93;76.55
10718;BME280;13513;42.700;23.124;2023-04-21T05:49:55;92574.61;;;13.24;74.27
10718;BME280;13513;42.700;23.124;2023-04-21T05:52:26;92576.05;;;14.08;70.17
10718;BME280;13513;42.700;23.124;2023-04-21T05:54:58;92574.77;;;14.78;68.37
10718;BME280;13513;42.700;23.124;2023-04-21T05:57:28;92579.00;;;15.36;61.77
10718;BME280;13513;42.700;23.124;2023-04-21T05:59:59;92575.89;;;15.94;59.56
10718;BME280;13513;42.700;23.124;2023-04-21T06:02:30;92579.28;;;16.19;57.98
10718;BME280;13513;42.700;23.124;2023-04-21T06:05:02;92587.40;;;15.90;57.16
10718;BME280;13513;42.700;23.124;2023-04-21T06:07:31;92581.55;;;16.09;57.59
10718;BME280;13513;42.700;23.124;2023-04-21T06:10:02;92581.88;;;16.45;56.62
10718;BME280;13513;42.700;23.124;2023-04-21T06:12:34;92580.88;;;16.57;53.90
10718;BME280;13513;42.700;23.124;2023-04-21T06:15:05;92575.16;;;16.95;55.27
10718;BME280;13513;42.700;23.124;2023-04-21T06:17:36;92578.11;;;17.69;53.86
10718;BME280;13513;42.700;23.124;2023-04-21T06:20:09;92575.37;;;18.36;51.68
10718;BME280;13513;42.700;23.124;2023-04-21T06:22:40;92575.98;;;18.44;48.39
10718;BME280;13513;42.700;23.124;2023-04-21T06:25:11;92573.19;;;18.49;50.06
10718;BME280;13513;42.700;23.124;2023-04-21T06:27:42;92572.11;;;18.83;49.48
10718;BME280;13513;42.700;23.124;2023-04-21T06:30:13;92572.77;;;19.22;47.96
10718;BME280;13513;42.700;23.124;2023-04-21T06:32:45;92576.95;;;19.47;47.74
10718;BME280;13513;42.700;23.124;2023-04-21T06:35:16;92579.65;;;18.92;45.82
10718;BME280;13513;42.700;23.124;2023-04-21T06:37:48;92569.73;;;19.15;48.11
10718;BME280;13513;42.700;23.124;2023-04-21T06:40:19;92569.75;;;19.45;47.10
10718;BME280;13513;42.700;23.124;2023-04-21T06:42:51;92571.19;;;19.63;44.60
10718;BME280;13513;42.700;23.124;2023-04-21T06:45:22;92565.91;;;19.97;45.23
10718;BME280;13513;42.700;23.124;2023-04-21T06:47:53;92573.16;;;20.44;44.62
10718;BME280;13513;42.700;23.124;2023-04-21T06:50:24;92564.80;;;20.71;44.00
10718;BME280;13513;42.700;23.124;2023-04-21T06:52:55;92565.34;;;20.96;44.11
10718;BME280;13513;42.700;23.124;2023-04-21T06:55:24;92566.42;;;21.20;42.70
10718;BME280;13513;42.700;23.124;2023-04-21T06:57:55;92570.76;;;21.27;42.21
10718;BME280;13513;42.700;23.124;2023-04-21T07:00:26;92564.92;;;21.48;39.87
10718;BME280;13513;42.700;23.124;2023-04-21T07:02:57;92565.84;;;20.98;42.34
10718;BME280;13513;42.700;23.124;2023-04-21T07:05:28;92565.27;;;20.81;42.72
10718;BME280;13513;42.700;23.124;2023-04-21T07:08:00;92565.02;;;21.46;43.47
10718;BME280;13513;42.700;23.124;2023-04-21T07:10:30;92565.33;;;21.67;39.80
10718;BME280;13513;42.700;23.124;2023-04-21T07:13:01;92567.27;;;21.58;41.91
10718;BME280;13513;42.700;23.124;2023-04-21T07:15:32;92567.86;;;21.49;42.83
10718;BME280;13513;42.700;23.124;2023-04-21T07:18:03;92561.63;;;21.89;41.97
10718;BME280;13513;42.700;23.124;2023-04-21T07:20:34;92570.37;;;21.86;40.91
10718;BME280;13513;42.700;23.124;2023-04-21T07:23:04;92564.05;;;21.27;42.06
10718;BME280;13513;42.700;23.124;2023-04-21T07:25:35;92567.31;;;20.76;40.66
10718;BME280;13513;42.700;23.124;2023-04-21T07:28:06;92569.47;;;19.75;43.59
10718;BME280;13513;42.700;23.124;2023-04-21T07:30:36;92571.86;;;19.26;44.85
10718;BME280;13513;42.700;23.124;2023-04-21T07:33:06;92578.27;;;19.67;43.09
10718;BME280;13513;42.700;23.124;2023-04-21T07:35:38;92572.16;;;19.75;45.01
10718;BME280;13513;42.700;23.124;2023-04-21T07:38:11;92567.63;;;20.74;43.15
10718;BME280;13513;42.700;23.124;2023-04-21T07:40:42;92562.03;;;21.07;41.58
10718;BME280;13513;42.700;23.124;2023-04-21T07:43:13;92564.05;;;21.19;39.48
10718;BME280;13513;42.700;23.124;2023-04-21T07:45:44;92566.87;;;21.71;41.46
10718;BME280;13513;42.700;23.124;2023-04-21T07:48:15;92567.97;;;22.71;41.93
10718;BME280;13513;42.700;23.124;2023-04-21T07:50:45;92571.84;;;23.03;37.84
10718;BME280;13513;42.700;23.124;2023-04-21T07:53:16;92572.91;;;22.40;39.49
10718;BME280;13513;42.700;23.124;2023-04-21T07:55:48;92581.36;;;21.55;42.10
10718;BME280;13513;42.700;23.124;2023-04-21T07:58:19;92584.92;;;20.62;40.22
10718;BME280;13513;42.700;23.124;2023-04-21T08:00:50;92585.94;;;19.71;44.59
10718;BME280;13513;42.700;23.124;2023-04-21T08:03:20;92583.76;;;19.42;44.86
10718;BME280;13513;42.700;23.124;2023-04-21T08:05:51;92578.70;;;18.66;46.01
10718;BME280;13513;42.700;23.124;2023-04-21T08:08:22;92571.98;;;18.31;49.04
10718;BME280;13513;42.700;23.124;2023-04-21T08:10:53;92578.88;;;18.21;49.06
10718;BME280;13513;42.700;23.124;2023-04-21T08:13:25;92582.91;;;18.45;46.14
10718;BME280;13513;42.700;23.124;2023-04-21T08:16:00;92579.78;;;18.98;49.39
10718;BME280;13513;42.700;23.124;2023-04-21T08:18:31;92572.21;;;19.11;44.82
10718;BME280;13513;42.700;23.124;2023-04-21T08:21:02;92573.75;;;18.82;45.39
10718;BME280;13513;42.700;23.124;2023-04-21T08:23:32;92575.84;;;17.76;46.81
10718;BME280;13513;42.700;23.124;2023-04-21T08:26:03;92570.41;;;17.38;48.55
10718;BME280;13513;42.700;23.124;2023-04-21T08:28:36;92570.20;;;17.50;49.17
10718;BME280;13513;42.700;23.124;2023-04-21T08:31:07;92569.03;;;17.94;48.79
10718;BME280;13513;42.700;23.124;2023-04-21T08:33:38;92571.30;;;18.25;49.89
10718;BME280;13513;42.700;23.124;2023-04-21T08:36:09;92568.64;;;18.50;50.48
10718;BME280;13513;42.700;23.124;2023-04-21T08:38:43;92568.44;;;18.35;47.07
10718;BME280;13513;42.700;23.124;2023-04-21T08:41:14;92566.36;;;17.94;48.03
10718;BME280;13513;42.700;23.124;2023-04-21T08:43:45;92565.39;;;17.77;51.48
10718;BME280;13513;42.700;23.124;2023-04-21T08:46:16;92565.28;;;17.55;52.27
10718;BME280;13513;42.700;23.124;2023-04-21T08:48:48;92566.20;;;17.50;49.63
10718;BME280;13513;42.700;23.124;2023-04-21T08:51:20;92558.73;;;18.01;49.39
10718;BME280;13513;42.700;23.124;2023-04-21T08:53:56;92555.63;;;18.57;51.53
10718;BME280;13513;42.700;23.124;2023-04-21T08:56:26;92559.27;;;19.46;47.61
10718;BME280;13513;42.700;23.124;2023-04-21T08:58:57;92542.25;;;21.12;45.70
10718;BME280;13513;42.700;23.124;2023-04-21T09:01:29;92553.14;;;22.92;37.94
10718;BME280;13513;42.700;23.124;2023-04-21T09:04:16;92558.81;;;23.76;35.76
10718;BME280;13513;42.700;23.124;2023-04-21T09:06:46;92553.23;;;24.23;35.08
10718;BME280;13513;42.700;23.124;2023-04-21T09:09:17;92544.13;;;24.10;34.93
10718;BME280;13513;42.700;23.124;2023-04-21T09:11:57;92535.77;;;26.25;33.20
10718;BME280;13513;42.700;23.124;2023-04-21T09:14:35;92535.09;;;27.36;31.36
10718;BME280;13513;42.700;23.124;2023-04-21T09:17:06;92535.90;;;26.07;34.69
10718;BME280;13513;42.700;23.124;2023-04-21T09:19:37;92543.08;;;23.84;36.41
10718;BME280;13513;42.700;23.124;2023-04-21T09:22:08;92535.02;;;23.07;36.65
10718;BME280;13513;42.700;23.124;2023-04-21T09:24:48;92531.35;;;23.62;36.65
10718;BME280;13513;42.700;23.124;2023-04-21T09:27:16;92523.19;;;24.19;38.28
10718;BME280;13513;42.700;23.124;2023-04-21T09:29:46;92518.05;;;25.97;33.48
10718;BME280;13513;42.700;23.124;2023-04-21T09:32:18;92518.75;;;29.23;29.99
10718;BME280;13513;42.700;23.124;2023-04-21T09:34:49;92514.00;;;32.24;25.80
10718;BME280;13513;42.700;23.124;2023-04-21T09:37:20;92509.48;;;32.99;25.13
10718;BME280;13513;42.700;23.124;2023-04-21T09:39:51;92510.67;;;30.70;28.85
10718;BME280;13513;42.700;23.124;2023-04-21T09:42:36;92505.38;;;29.44;28.35
10718;BME280;13513;42.700;23.124;2023-04-21T09:45:01;92509.41;;;26.67;29.07
10718;BME280;13513;42.700;23.124;2023-04-21T09:47:33;92504.45;;;24.74;31.77
10718;BME280;13513;42.700;23.124;2023-04-21T09:50:10;92501.25;;;24.20;35.91
10718;BME280;13513;42.700;23.124;2023-04-21T09:52:41;92505.20;;;23.81;35.65
10718;BME280;13513;42.700;23.124;2023-04-21T09:55:13;92509.03;;;22.35;35.95
10718;BME280;13513;42.700;23.124;2023-04-21T09:57:45;92508.15;;;20.78;41.09
10718;BME280;13513;42.700;23.124;2023-04-21T10:00:18;92515.00;;;19.77;42.50
10718;BME280;13513;42.700;23.124;2023-04-21T10:02:50;92515.36;;;19.14;43.42
10718;BME280;13513;42.700;23.124;2023-04-21T10:05:21;92508.44;;;18.61;45.61
10718;BME280;13513;42.700;23.124;2023-04-21T10:07:52;92510.08;;;18.59;46.22
10718;BME280;13513;42.700;23.124;2023-04-21T10:10:25;92510.81;;;18.62;46.45
10718;BME280;13513;42.700;23.124;2023-04-21T10:12:55;92504.45;;;18.80;45.06
10718;BME280;13513;42.700;23.124;2023-04-21T10:15:40;92494.75;;;18.51;44.74
10718;BME280;13513;42.700;23.124;2023-04-21T10:18:21;92502.17;;;17.83;43.29
10718;BME280;13513;42.700;23.124;2023-04-21T10:21:06;92491.72;;;18.20;48.56
10718;BME280;13513;42.700;23.124;2023-04-21T10:23:43;92485.14;;;19.03;48.15
10718;BME280;13513;42.700;23.124;2023-04-21T10:26:36;92482.85;;;19.86;45.00
10718;BME280;13513;42.700;23.124;2023-04-21T10:28:59;92487.87;;;20.24;41.11
10718;BME280;13513;42.700;23.124;2023-04-21T10:31:35;92487.73;;;20.29;39.23
10718;BME280;13513;42.700;23.124;2023-04-21T10:34:12;92481.75;;;20.04;40.36
10718;BME280;13513;42.700;23.124;2023-04-21T10:39:31;92488.36;;;19.52;42.64
10718;BME280;13513;42.700;23.124;2023-04-21T10:42:24;92490.78;;;19.12;41.84
10718;BME280;13513;42.700;23.124;2023-04-21T10:47:46;92479.91;;;19.85;43.91
10718;BME280;13513;42.700;23.124;2023-04-21T10:50:21;92467.95;;;20.08;42.22
10718;BME280;13513;42.700;23.124;2023-04-21T10:55:28;92486.84;;;19.10;42.59
10718;BME280;13513;42.700;23.124;2023-04-21T10:58:03;92482.64;;;18.65;42.54
10718;BME280;13513;42.700;23.124;2023-04-21T11:00:35;92491.11;;;18.58;43.34
10718;BME280;13513;42.700;23.124;2023-04-21T11:03:09;92486.01;;;18.24;44.94
10718;BME280;13513;42.700;23.124;2023-04-21T11:05:42;92491.59;;;18.25;45.51
10718;BME280;13513;42.700;23.124;2023-04-21T11:08:14;92485.28;;;18.10;45.33
10718;BME280;13513;42.700;23.124;2023-04-21T11:10:50;92481.09;;;18.17;45.61
10718;BME280;13513;42.700;23.124;2023-04-21T11:13:24;92482.78;;;18.13;45.93
10718;BME280;13513;42.700;23.124;2023-04-21T11:16:04;92481.34;;;18.29;45.33
10718;BME280;13513;42.700;23.124;2023-04-21T11:18:43;92480.80;;;18.30;46.29
10718;BME280;13513;42.700;23.124;2023-04-21T11:21:17;92483.08;;;18.58;46.00
10718;BME280;13513;42.700;23.124;2023-04-21T11:23:50;92473.80;;;18.20;44.13
10718;BME280;13513;42.700;23.124;2023-04-21T11:26:30;92478.11;;;17.83;44.82
10718;BME280;13513;42.700;23.124;2023-04-21T11:29:03;92474.94;;;17.70;45.67
10718;BME280;13513;42.700;23.124;2023-04-21T11:31:35;92483.02;;;17.79;46.06
10718;BME280;13513;42.700;23.124;2023-04-21T11:34:06;92481.02;;;17.73;47.78
10718;BME280;13513;42.700;23.124;2023-04-21T11:36:39;92482.77;;;18.02;47.30
10718;BME280;13513;42.700;23.124;2023-04-21T11:39:12;92484.97;;;18.22;46.52
10718;BME280;13513;42.700;23.124;2023-04-21T11:41:44;92489.03;;;18.44;44.46
10718;BME280;13513;42.700;23.124;2023-04-21T11:47:17;92486.01;;;18.24;45.05
10718;BME280;13513;42.700;23.124;2023-04-21T11:49:55;92480.11;;;18.13;45.52
10718;BME280;13513;42.700;23.124;2023-04-21T11:52:32;92481.61;;;18.06;43.74
10718;BME280;13513;42.700;23.124;2023-04-21T11:55:13;92487.22;;;18.07;44.35
10718;BME280;13513;42.700;23.124;2023-04-21T11:57:44;92487.64;;;17.76;46.98
10718;BME280;13513;42.700;23.124;2023-04-21T12:00:15;92486.27;;;17.65;46.00
10718;BME280;13513;42.700;23.124;2023-04-21T12:02:54;92492.09;;;17.67;44.54
10718;BME280;13513;42.700;23.124;2023-04-21T12:05:23;92490.91;;;17.73;46.12
10718;BME280;13513;42.700;23.124;2023-04-21T12:07:54;92482.27;;;17.65;45.04
10718;BME280;13513;42.700;23.124;2023-04-21T12:10:27;92484.36;;;17.54;43.66
10718;BME280;13513;42.700;23.124;2023-04-21T12:12:59;92491.63;;;17.51;43.33
10718;BME280;13513;42.700;23.124;2023-04-21T12:15:33;92490.41;;;17.46;44.14
10718;BME280;13513;42.700;23.124;2023-04-21T12:18:10;92468.03;;;17.42;45.60
10718;BME280;13513;42.700;23.124;2023-04-21T12:20:36;92482.23;;;17.78;45.65
10718;BME280;13513;42.700;23.124;2023-04-21T12:23:07;92478.81;;;18.00;44.40
10718;BME280;13513;42.700;23.124;2023-04-21T12:25:38;92482.19;;;18.16;44.87
10718;BME280;13513;42.700;23.124;2023-04-21T12:28:09;92484.42;;;18.58;44.19
10718;BME280;13513;42.700;23.124;2023-04-21T12:30:40;92478.33;;;18.97;42.77
10718;BME280;13513;42.700;23.124;2023-04-21T12:33:11;92472.84;;;19.32;42.21
10718;BME280;13513;42.700;23.124;2023-04-21T12:35:43;92481.72;;;19.78;40.71
10718;BME280;13513;42.700;23.124;2023-04-21T12:38:13;92467.12;;;20.35;44.71
10718;BME280;13513;42.700;23.124;2023-04-21T12:40:43;92466.88;;;21.08;40.78
10718;BME280;13513;42.700;23.124;2023-04-21T12:43:15;92481.24;;;21.35;40.46
10718;BME280;13513;42.700;23.124;2023-04-21T12:45:45;92475.28;;;21.21;40.41
10718;BME280;13513;42.700;23.124;2023-04-21T12:48:16;92447.47;;;20.12;40.08
10718;BME280;13513;42.700;23.124;2023-04-21T12:50:46;92483.86;;;20.15;41.11
10718;BME280;13513;42.700;23.124;2023-04-21T12:53:19;92471.16;;;20.10;42.73
10718;BME280;13513;42.700;23.124;2023-04-21T12:55:50;92472.58;;;20.33;42.48
10718;BME280;13513;42.700;23.124;2023-04-21T12:58:20;92472.02;;;20.59;40.79
10718;BME280;13513;42.700;23.124;2023-04-21T13:00:51;92469.47;;;21.11;40.83
10718;BME280;13513;42.700;23.124;2023-04-21T13:03:22;92475.75;;;21.46;39.42
10718;BME280;13513;42.700;23.124;2023-04-21T13:05:52;92471.10;;;21.41;39.08
10718;BME280;13513;42.700;23.124;2023-04-21T13:08:22;92461.69;;;21.70;38.80
10718;BME280;13513;42.700;23.124;2023-04-21T13:10:53;92458.23;;;21.69;37.12
10718;BME280;13513;42.700;23.124;2023-04-21T13:13:24;92463.23;;;21.50;36.92
10718;BME280;13513;42.700;23.124;2023-04-21T13:15:55;92461.11;;;21.27;36.96
10718;BME280;13513;42.700;23.124;2023-04-21T13:18:25;92452.95;;;21.06;37.40
10718;BME280;13513;42.700;23.124;2023-04-21T13:23:24;92447.36;;;21.43;35.56
10718;BME280;13513;42.700;23.124;2023-04-21T13:25:55;92438.55;;;21.34;37.49
10718;BME280;13513;42.700;23.124;2023-04-21T13:28:24;92439.41;;;21.69;36.73